Pagina principale
METAR-TAF:

METAR-TAF

Aeroporti :

Brighton, Inghilterra

latitudine: 50-50N, longitudine: 000-17W, altezza: 2 m

Osservazione

Il bollettino è stato emesso 4 ore e 4 minuti fa, alle 18:50 UTC
Vento 6 kt da sud/sud-ovest
Temperature 21°C
Umidità 83%
Pressione 1021 hPa
Visibilità 10 km o più
nessuna nube inferiore a 1500 m e nessun cumulonembo

METAR: EGKA 221850Z 21006KT CAVOK 21/18 Q1021

Ora: 23:54 (22:54 UTC)

Previsione

Il bollettino è stato emesso 8 ore e 53 minuti fa, alle 14:01 UTC
Previsione valida dal 22 alle 15 UTC al 22 alle 19 UTC
Vento 12 kt da sud-ovest
Visibilità 10 km o più
Poco nuvoloso ad un'altezza di 1200 ft
Probabilità 30% :
Temporaneamente
dal 22 alle 15 UTC al 22 alle 19 UTC
Visibilità: 6000 m
Nuvoloso ad un'altezza di 600 ft

TAF: EGKA 221401Z 2215/2219 22012KT 9999 FEW012 PROB30 TEMPO 2215/2219 6000 BKN006

Osservazioni e previsioni meteorologiche di più di 4000 aeroporti (messaggi METAR e TAF).

Le stazioni disponibili sono rappresentate dai dischi gialli e rossi sulla carta.

Puntare il mouse per vedere il nome della stazione.

Clicca sopra per visualizzare le osservazioni e previsioni meteorologiche.

Per cambiare la mappa : fare clic sui pulsanti verdi con una croce nera per ingrandire, il pulsante verde con un trattino per diminuire, o sulla freccia verde per le mappe adiacenti.


METAR-TAF: